Sunday, September 23, 2018, 4:57 AM GMT
Back to Local

CXKT, Kentville , N. S.

Location: , , Canada Lat: 45.067
Local Time: 4:57 AM GMT ( 4:57 GMT) Lon: -64.483
Time Zone: GMT Elev: 160 ft

Show me the last for .
Show Coded

Time T Td Feel RH Dir Speed Gust Alt SLP Vis Weather Sky Remarks
2018-09-23 04:00 46 41 43 83 220° 6 - - 30.16 0 None
2018-09-23 03:00 48 38 46 69 230° 5 - - 30.16 0 None
2018-09-23 02:00 49 40 47 71 220° 5 - - 30.14 0 None
2018-09-23 01:00 50 39 - 67 230° 2 - - 30.11 0 None
2018-09-23 00:00 52 40 - 63 300° 5 - - 30.08 0 None
2018-09-22 23:00 53 41 - 63 230° 3 - - 30.06 0 None
2018-09-22 22:00 57 40 - 51 270° 5 - - 30.03 0 None
2018-09-22 21:00 61 38 - 42 300° 9 - - 29.99 0 Peak wind: 19 mph (17 kts) from 270° at 29 min
2018-09-22 20:00 63 38 - 38 300° 10 20 - 29.96 0 Peak wind: 24 mph (21 kts) from 310° at 27 min
2018-09-22 19:00 64 39 - 40 290° 10 18 - 29.93 0 Peak wind: 24 mph (21 kts) from 280° at 23 min
2018-09-22 18:00 65 47 - 52 280° 14 23 - 29.90 0 Peak wind: 23 mph (20 kts) from 290° at 57 min
2018-09-22 17:00 64 49 - 57 290° 10 - - 29.88 0 Peak wind: 25 mph (22 kts) from 290° at 38 min
2018-09-22 16:00 67 49 - 53 280° 14 24 - 29.84 0 Peak wind: 25 mph (22 kts) from 240° at 42 min
2018-09-22 15:00 66 56 - 69 280° 15 26 - 29.80 0 Peak wind: 26 mph (23 kts) from 270° at 51 min
2018-09-22 14:00 67 60 - 78 250° 8 - - 29.77 0 Peak wind: 23 mph (20 kts) from 260° at 26 min
2018-09-22 13:00 66 62 - 87 240° 13 23 - 29.75 0 Peak wind: 23 mph (20 kts) from 240° at 33 min
1-hr Precip Total: 0.13"
2018-09-22 12:00 64 60 - 85 230° 9 - - 29.72 0 Peak wind: 25 mph (22 kts) from 210° at 44 min
1-hr Precip Total: 0.06"
2018-09-22 11:00 64 60 - 88 220° 13 23 - 29.73 0 Peak wind: 34 mph (30 kts) from 210° at 00 min
2018-09-22 10:00 63 60 - 88 210° 12 33 - 29.71 0 Peak wind: 33 mph (29 kts) from 210° at 00 min
1-hr Precip Total: 0.02"
2018-09-22 09:00 65 58 - 79 210° 15 29 - 29.73 0 Peak wind: 28 mph (25 kts) from 200° at 54 min
2018-09-22 08:00 64 58 - 81 210° 10 21 - 29.76 0 Peak wind: 28 mph (25 kts) from 220° at 26 min
2018-09-22 07:00 65 56 - 73 210° 10 23 - 29.79 0 Peak wind: 32 mph (28 kts) from 190° at 20 min
2018-09-22 06:00 64 55 - 72 190° 13 28 - 29.81 0 Peak wind: 27 mph (24 kts) from 200° at 55 min
2018-09-22 05:00 63 54 - 72 190° 14 24 - 29.86 0 Peak wind: 29 mph (26 kts) from 160° at 48 min
Pressure falling rapidly

Support USWX by starting your Amazon purchase here.